Time;durP1;ratioP1;P1;durP2;ratioP2;P2;SDS_P1;SDS_P2;PMS_P1;PMS_P2;Temp;Humidity;BMP_temperature;BMP_pressure;BME280_temperature;BME280_humidity;BME280_pressure;Samples;Min_cycle;Max_cycle;Signal;HPM_P1;HPM_P2
2022/06/18 00:03:32;;;;;;;4.35;1.42;;;;;;;15.81;69.87;97131.28;10407468;28;20219;-51
2022/06/18 00:08:32;;;;;;;2.42;1.10;;;;;;;15.83;69.57;97126.66;10407758;28;20228;-52
2022/06/18 00:13:42;;;;;;;2.60;1.30;;;;;;;15.82;69.39;97115.25;10407312;28;20200;-56
2022/06/18 00:18:42;;;;;;;3.15;1.27;;;;;;;15.84;69.03;97110.59;10407325;28;20227;-51
2022/06/18 00:23:43;;;;;;;3.13;1.63;;;;;;;15.72;69.53;97114.66;10407274;28;20594;-57
2022/06/18 00:28:44;;;;;;;2.42;1.23;;;;;;;15.68;69.91;97119.50;10407246;28;20229;-51
2022/06/18 00:33:44;;;;;;;1.10;1.05;;;;;;;15.68;69.28;97090.44;10407160;28;20560;-55
2022/06/18 00:38:47;;;;;;;4.13;1.40;;;;;;;15.72;68.73;97079.50;10413508;28;20221;-51
2022/06/18 00:43:52;;;;;;;2.83;1.30;;;;;;;15.78;68.09;97070.91;10396389;28;20199;-51
2022/06/18 00:49:15;;;;;;;1.60;1.35;;;;;;;15.80;67.11;97051.22;10414360;28;20227;-53
2022/06/18 00:54:21;;;;;;;1.20;1.10;;;;;;;15.83;66.89;97048.22;10414048;28;20199;-58
2022/06/18 00:59:31;;;;;;;1.80;1.17;;;;;;;15.83;66.39;97039.47;10432974;28;20234;-55
2022/06/18 01:04:34;;;;;;;4.40;1.30;;;;;;;15.89;65.88;97030.00;10436990;28;20211;-56
2022/06/18 01:09:35;;;;;;;2.70;1.00;;;;;;;16.00;65.20;97017.16;10441653;28;20232;-56
2022/06/18 01:14:37;;;;;;;1.67;0.98;;;;;;;16.05;64.74;97006.03;10454261;28;20191;-55
2022/06/18 01:19:40;;;;;;;1.73;0.90;;;;;;;16.11;64.01;96980.66;10419830;28;20212;-58
2022/06/18 01:24:42;;;;;;;2.08;1.10;;;;;;;16.15;63.72;96980.13;10435775;28;20192;-55
2022/06/18 01:29:44;;;;;;;4.80;1.25;;;;;;;16.15;63.50;96972.19;10436212;28;20200;-56
2022/06/18 01:34:45;;;;;;;7.57;1.30;;;;;;;16.19;63.34;96959.44;10440099;28;20194;-52
2022/06/18 01:39:47;;;;;;;1.33;1.00;;;;;;;16.32;63.10;96949.00;10418470;28;20218;-53
2022/06/18 01:44:51;;;;;;;1.73;1.30;;;;;;;16.44;62.18;96932.66;10413258;23;20256;-53
2022/06/18 01:50:21;;;;;;;2.53;1.08;;;;;;;16.39;62.09;96920.81;10354735;28;20573;-53
2022/06/18 01:55:32;;;;;;;1.50;0.90;;;;;;;16.44;61.27;96906.19;10331739;28;20217;-53
2022/06/18 02:00:34;;;;;;;3.90;1.25;;;;;;;16.31;61.82;96906.88;10371789;28;20253;-53
2022/06/18 02:05:37;;;;;;;1.25;0.80;;;;;;;16.26;61.44;96904.00;10354570;28;20585;-53
2022/06/18 02:10:43;;;;;;;1.27;1.05;;;;;;;16.23;61.42;96900.72;10355510;28;20201;-53
2022/06/18 02:15:46;;;;;;;6.78;1.15;;;;;;;16.14;61.76;96901.00;10354039;28;20213;-53
2022/06/18 02:20:52;;;;;;;2.33;1.05;;;;;;;16.00;62.50;96922.03;10352015;28;20577;-53
2022/06/18 02:25:53;;;;;;;2.08;1.10;;;;;;;15.96;62.48;96919.94;10352703;28;20209;-53
2022/06/18 02:30:58;;;;;;;1.65;0.98;;;;;;;15.95;62.37;96921.75;10372094;28;20189;-52
2022/06/18 02:36:05;;;;;;;2.35;0.90;;;;;;;15.83;62.63;96931.16;10353500;28;20707;-53
2022/06/18 02:41:06;;;;;;;1.33;1.05;;;;;;;15.77;63.05;96916.84;10353991;28;20267;-52
2022/06/18 02:46:06;;;;;;;7.00;1.02;;;;;;;15.68;63.08;96920.56;10353204;28;20367;-52
2022/06/18 02:51:10;;;;;;;1.05;0.90;;;;;;;15.67;63.18;96938.22;10353474;28;20234;-57
2022/06/18 02:56:13;;;;;;;3.92;1.30;;;;;;;15.60;63.45;96936.50;10352841;28;20205;-52
2022/06/18 03:01:20;;;;;;;1.98;1.10;;;;;;;15.57;63.35;96932.41;10352313;28;20193;-52
2022/06/18 03:06:23;;;;;;;3.63;1.35;;;;;;;15.54;63.80;96931.97;10370367;28;20221;-54
2022/06/18 03:16:48;;;;;;;1.58;1.25;;;;;;;15.51;63.70;96931.34;10352838;28;20185;-53
2022/06/18 03:21:50;;;;;;;2.03;1.20;;;;;;;15.54;63.69;96921.41;10352998;28;20193;-52
2022/06/18 03:26:51;;;;;;;1.50;0.90;;;;;;;15.57;63.64;96929.75;10353417;28;20225;-56
2022/06/18 03:31:52;;;;;;;1.00;0.95;;;;;;;15.64;63.48;96928.03;10353075;28;20998;-57
2022/06/18 03:36:54;;;;;;;1.13;1.02;;;;;;;15.75;62.57;96918.03;10352202;28;20725;-56
2022/06/18 03:41:56;;;;;;;3.83;1.23;;;;;;;15.82;62.46;96913.69;10352245;28;20209;-57
2022/06/18 03:46:58;;;;;;;1.60;1.20;;;;;;;15.96;62.20;96893.50;10352181;28;20691;-58
2022/06/18 03:52:08;;;;;;;1.52;1.08;;;;;;;16.11;61.71;96888.16;10354226;28;20295;-58
2022/06/18 03:57:15;;;;;;;1.25;1.15;;;;;;;16.18;61.41;96879.31;10392501;28;20189;-58
2022/06/18 04:02:16;;;;;;;3.42;1.08;;;;;;;16.35;61.23;96879.06;10376055;28;20212;-56
2022/06/18 04:07:18;;;;;;;1.65;0.95;;;;;;;16.58;60.80;96871.75;10392581;28;20221;-56
2022/06/18 04:12:32;;;;;;;3.70;1.30;;;;;;;16.86;60.48;96859.53;10396925;28;20205;-57
2022/06/18 04:17:43;;;;;;;3.33;1.20;;;;;;;17.10;59.66;96850.38;10400146;28;20208;-58
2022/06/18 04:22:43;;;;;;;2.05;1.10;;;;;;;17.34;59.44;96856.22;10399626;28;20218;-56
2022/06/18 04:27:44;;;;;;;3.50;0.90;;;;;;;17.60;58.80;96844.94;10417494;28;20217;-59
2022/06/18 04:32:46;;;;;;;3.17;0.80;;;;;;;17.80;58.68;96834.41;10399612;28;20236;-56
2022/06/18 04:37:48;;;;;;;2.05;1.10;;;;;;;18.03;58.00;96820.81;10399304;28;20357;-58
2022/06/18 04:43:05;;;;;;;1.92;1.10;;;;;;;18.23;58.53;96843.91;10398749;28;20264;-54
2022/06/18 04:48:06;;;;;;;1.95;1.05;;;;;;;18.48;57.46;96818.44;10398671;28;20243;-59
2022/06/18 04:53:08;;;;;;;3.38;1.00;;;;;;;18.85;56.96;96823.31;10398533;28;20780;-58
2022/06/18 04:58:09;;;;;;;1.65;1.00;;;;;;;18.97;58.37;96863.34;10398338;28;20181;-55
2022/06/18 05:03:17;;;;;;;2.20;1.08;;;;;;;18.98;58.99;96872.94;10398010;28;20235;-55
2022/06/18 05:08:29;;;;;;;1.98;0.95;;;;;;;19.31;57.58;96854.31;10398060;28;20212;-57
2022/06/18 05:13:50;;;;;;;1.30;1.00;;;;;;;19.56;57.72;96849.09;10410495;28;20295;-53
2022/06/18 05:19:01;;;;;;;2.22;1.23;;;;;;;19.78;56.96;96839.03;10373517;28;20549;-53
2022/06/18 05:24:02;;;;;;;2.58;1.08;;;;;;;20.01;58.47;96874.09;10373054;28;20205;-52
2022/06/18 05:29:02;;;;;;;1.35;1.00;;;;;;;20.54;55.33;96803.75;10356918;28;20216;-55
2022/06/18 05:34:03;;;;;;;0.98;0.85;;;;;;;21.03;54.88;96808.22;10371638;28;20241;-53
2022/06/18 05:39:05;;;;;;;1.50;1.00;;;;;;;21.42;52.48;96761.88;10372678;28;20268;-55
2022/06/18 05:44:06;;;;;;;2.67;1.00;;;;;;;21.82;50.88;96730.22;10372190;28;20237;-57
2022/06/18 05:49:06;;;;;;;0.85;0.85;;;;;;;22.23;47.90;96661.00;10372055;28;20304;-58
2022/06/18 05:54:06;;;;;;;1.48;1.13;;;;;;;22.49;48.12;96680.31;10370792;28;20288;-57
2022/06/18 05:59:18;;;;;;;2.22;0.77;;;;;;;22.80;46.30;96639.84;10355590;28;20735;-57
2022/06/18 06:04:19;;;;;;;2.40;1.13;;;;;;;23.04;46.49;96655.00;10372373;28;20284;-56
2022/06/18 06:14:41;;;;;;;1.55;1.00;;;;;;;23.51;45.94;96668.19;10354398;28;20228;-54
2022/06/18 06:19:41;;;;;;;1.95;0.93;;;;;;;23.72;45.25;96636.44;10371253;28;20554;-56
2022/06/18 06:24:41;;;;;;;1.42;0.90;;;;;;;24.11;43.42;96615.16;10406919;28;20242;-58
2022/06/18 06:29:42;;;;;;;1.15;1.00;;;;;;;24.29;43.66;96614.03;10394856;28;20221;-57
2022/06/18 06:34:42;;;;;;;1.83;1.00;;;;;;;24.50;42.91;96601.75;10393252;28;20213;-59
2022/06/18 06:39:42;;;;;;;1.17;0.90;;;;;;;24.92;43.04;96625.34;10371752;28;20242;-58
2022/06/18 06:44:43;;;;;;;1.52;0.88;;;;;;;25.73;40.46;96567.41;10371254;28;20237;-57
2022/06/18 06:49:43;;;;;;;2.63;0.70;;;;;;;25.19;41.59;96571.75;10371467;28;20236;-57
2022/06/18 06:54:44;;;;;;;2.90;0.88;;;;;;;25.05;41.43;96570.53;10370445;28;20236;-57
2022/06/18 06:59:44;;;;;;;1.73;0.73;;;;;;;24.96;41.16;96559.44;10401511;28;20204;-58
2022/06/18 07:04:44;;;;;;;1.63;0.85;;;;;;;26.28;39.33;96547.34;10409882;28;20218;-56
2022/06/18 07:09:45;;;;;;;1.23;0.90;;;;;;;26.49;39.86;96568.94;10408877;28;20599;-57
2022/06/18 07:14:45;;;;;;;2.83;0.80;;;;;;;25.55;40.63;96550.63;10403520;28;20232;-57
2022/06/18 07:19:45;;;;;;;1.95;0.88;;;;;;;26.86;38.84;96549.19;10387244;28;20300;-59
2022/06/18 07:24:46;;;;;;;1.17;0.90;;;;;;;27.68;37.05;96527.75;10399995;28;20216;-57
2022/06/18 07:29:46;;;;;;;3.63;1.13;;;;;;;28.16;37.55;96542.78;10409736;28;20733;-57
2022/06/18 07:34:47;;;;;;;1.30;1.10;;;;;;;27.82;37.09;96508.38;10402527;28;20225;-60
2022/06/18 07:39:47;;;;;;;2.47;0.90;;;;;;;26.57;39.50;96533.50;10394336;28;20451;-57
2022/06/18 07:44:48;;;;;;;1.40;0.77;;;;;;;26.37;39.01;96512.75;10404358;28;20244;-57
2022/06/18 07:49:48;;;;;;;2.55;1.00;;;;;;;26.64;39.31;96523.31;10435902;23;20244;-53
2022/06/18 07:54:49;;;;;;;1.47;1.17;;;;;;;27.10;37.52;96478.81;10416558;28;20671;-52
2022/06/18 07:59:49;;;;;;;1.00;0.97;;;;;;;28.24;36.23;96486.47;10394653;28;21019;-56
2022/06/18 08:04:49;;;;;;;1.30;0.93;;;;;;;26.83;37.51;96448.41;10375913;28;20440;-57
2022/06/18 08:09:50;;;;;;;1.37;0.77;;;;;;;27.61;38.19;96524.53;10375245;28;20276;-56
2022/06/18 08:14:50;;;;;;;2.87;1.03;;;;;;;28.25;36.92;96479.19;10373787;28;20899;-56
2022/06/18 08:19:50;;;;;;;3.13;0.87;;;;;;;29.93;34.31;96453.16;10374671;28;20878;-59
2022/06/18 08:24:51;;;;;;;3.53;0.90;;;;;;;28.83;35.58;96443.56;10375473;28;20851;-57
2022/06/18 08:29:52;;;;;;;2.55;0.93;;;;;;;28.40;37.00;96479.09;10375331;28;20264;-59
2022/06/18 08:34:52;;;;;;;2.70;1.10;;;;;;;28.17;35.95;96428.59;10375014;28;20209;-59
2022/06/18 08:39:53;;;;;;;1.95;1.05;;;;;;;27.70;36.69;96455.66;10374491;28;20217;-57
2022/06/18 08:45:03;;;;;;;1.80;0.90;;;;;;;28.14;36.67;96464.16;10373079;28;20205;-55
2022/06/18 08:50:29;;;;;;;3.08;1.00;;;;;;;28.37;35.86;96433.84;10378873;28;20255;-54
2022/06/18 08:56:00;;;;;;;3.33;0.90;;;;;;;29.85;34.53;96463.50;10413761;28;20268;-59
2022/06/18 09:01:18;;;;;;;1.67;1.00;;;;;;;30.34;33.76;96436.44;10390586;28;20342;-57
2022/06/18 09:06:56;;;;;;;1.52;1.10;;;;;;;28.87;34.58;96395.28;10384223;28;20292;-57
2022/06/18 09:12:14;;;;;;;4.32;1.10;;;;;;;29.29;35.09;96439.72;10411361;28;20213;-58
2022/06/18 09:17:25;;;;;;;2.47;0.90;;;;;;;29.40;35.59;96462.81;10413212;28;20199;-56
2022/06/18 09:22:26;;;;;;;2.95;0.93;;;;;;;31.37;33.30;96459.28;10389743;28;20181;-57
2022/06/18 09:27:42;;;;;;;3.00;1.00;;;;;;;31.02;33.34;96434.44;10394186;28;20208;-56
2022/06/18 09:32:52;;;;;;;2.70;1.05;;;;;;;32.75;30.52;96400.75;10413955;28;20654;-58
2022/06/18 09:38:18;;;;;;;5.15;0.82;;;;;;;31.04;32.62;96378.09;10415449;28;20216;-57
2022/06/18 09:43:37;;;;;;;4.85;1.05;;;;;;;30.67;33.84;96409.50;10397416;28;20199;-57
2022/06/18 09:48:38;;;;;;;3.83;0.98;;;;;;;30.27;32.76;96328.69;10413648;28;20240;-56
2022/06/18 09:53:41;;;;;;;2.50;1.13;;;;;;;29.59;34.41;96370.31;10413952;28;20203;-57
2022/06/18 09:58:49;;;;;;;5.90;1.10;;;;;;;31.17;32.80;96380.03;10395951;28;20219;-56
2022/06/18 10:09:12;;;;;;;4.35;1.20;;;;;;;29.43;33.96;96348.13;10401949;28;20214;-57
2022/06/18 10:14:19;;;;;;;2.88;1.10;;;;;;;30.59;32.87;96367.72;10371728;28;20201;-57
2022/06/18 10:19:43;;;;;;;3.78;1.60;;;;;;;31.35;31.60;96355.91;10371810;28;20205;-57
2022/06/18 10:25:02;;;;;;;5.43;1.13;;;;;;;32.26;31.50;96381.50;10405346;28;20219;-56
2022/06/18 10:30:16;;;;;;;2.75;1.30;;;;;;;31.91;30.00;96313.38;10412103;28;20212;-59
2022/06/18 10:35:44;;;;;;;6.25;1.25;;;;;;;32.76;30.32;96353.50;10394555;28;20701;-59
2022/06/18 10:41:10;;;;;;;4.82;1.17;;;;;;;31.91;30.25;96297.13;10411838;28;20219;-58
2022/06/18 10:46:16;;;;;;;4.70;1.20;;;;;;;31.88;30.61;96314.78;10411905;28;20224;-59
2022/06/18 10:51:22;;;;;;;9.35;1.70;;;;;;;31.72;30.66;96318.94;10411414;28;20240;-59
2022/06/18 10:56:28;;;;;;;3.45;1.48;;;;;;;31.54;30.79;96293.56;10411625;28;20633;-60
2022/06/18 11:01:34;;;;;;;4.72;1.73;;;;;;;30.73;32.33;96328.00;10411465;28;20714;-59
2022/06/18 11:06:34;;;;;;;6.35;1.40;;;;;;;32.47;30.08;96306.72;10410941;28;20223;-60
2022/06/18 11:11:36;;;;;;;9.97;1.63;;;;;;;30.30;31.59;96263.25;10410876;28;20216;-59
2022/06/18 11:16:42;;;;;;;11.57;1.90;;;;;;;30.04;33.28;96311.47;10411154;28;20518;-59
2022/06/18 11:21:43;;;;;;;4.05;1.55;;;;;;;31.39;31.50;96311.69;10407904;28;20299;-59
2022/06/18 11:26:52;;;;;;;5.72;1.27;;;;;;;31.74;30.82;96312.09;10393133;28;20251;-60
2022/06/18 11:31:55;;;;;;;7.50;1.75;;;;;;;31.50;30.36;96277.09;10392829;28;20223;-59
2022/06/18 11:36:57;;;;;;;11.52;1.65;;;;;;;30.15;31.61;96266.97;10393138;28;20734;-59
2022/06/18 11:42:04;;;;;;;9.25;1.33;;;;;;;31.32;31.66;96314.00;10410113;28;20235;-60
2022/06/18 11:47:12;;;;;;;7.70;1.80;;;;;;;32.09;29.83;96274.50;10410558;28;20220;-60
2022/06/18 11:52:37;;;;;;;11.00;2.33;;;;;;;33.48;28.40;96297.34;10410194;28;20243;-60
2022/06/18 11:57:46;;;;;;;7.28;2.08;;;;;;;35.93;26.29;96291.56;10392497;28;20725;-61
2022/06/18 12:02:58;;;;;;;12.20;1.98;;;;;;;32.81;30.13;96275.50;10392904;28;20280;-58
2022/06/18 12:08:00;;;;;;;6.72;1.75;;;;;;;35.78;26.44;96285.56;10409609;28;20239;-60
2022/06/18 12:13:10;;;;;;;9.88;1.98;;;;;;;34.25;27.92;96252.41;10410215;28;20255;-61
2022/06/18 12:18:22;;;;;;;6.45;2.10;;;;;;;33.86;28.95;96275.09;10391727;28;20208;-61
2022/06/18 12:23:32;;;;;;;8.38;1.85;;;;;;;33.05;28.12;96210.00;10392906;28;20184;-61
2022/06/18 12:28:43;;;;;;;15.70;2.47;;;;;;;33.17;28.68;96222.16;10365604;28;20229;-61
2022/06/18 12:33:52;;;;;;;14.60;2.28;;;;;;;33.36;28.29;96213.81;10356717;28;20308;-60
2022/06/18 12:39:21;;;;;;;11.45;2.65;;;;;;;32.86;29.64;96236.59;10375683;28;20655;-60
2022/06/18 12:44:42;;;;;;;5.82;1.60;;;;;;;34.61;27.81;96256.69;10358885;28;20312;-59
2022/06/18 12:49:52;;;;;;;10.85;2.15;;;;;;;32.08;30.40;96215.19;10357871;28;20233;-59
2022/06/18 12:55:04;;;;;;;11.63;2.53;;;;;;;32.59;29.41;96208.53;10376066;28;20197;-59
2022/06/18 13:00:12;;;;;;;10.60;2.03;;;;;;;33.37;29.87;96261.53;10375232;28;20213;-58
2022/06/18 13:05:38;;;;;;;12.15;2.33;;;;;;;32.55;30.60;96237.38;10357447;28;20545;-59
2022/06/18 13:10:55;;;;;;;8.88;2.47;;;;;;;32.35;30.12;96208.84;10357205;28;20225;-60
2022/06/18 13:16:04;;;;;;;5.65;1.88;;;;;;;36.02;26.93;96274.03;10357234;28;20215;-60
2022/06/18 13:21:07;;;;;;;15.63;2.65;;;;;;;33.88;28.22;96194.84;10356803;28;20221;-59
2022/06/18 13:32:03;;;;;;;11.50;2.60;;;;;;;34.37;29.06;96230.03;10373805;28;20217;-58
2022/06/18 13:37:32;;;;;;;16.73;2.97;;;;;;;37.50;25.13;96232.66;10356190;28;20220;-58
2022/06/18 13:42:48;;;;;;;10.95;2.80;;;;;;;38.61;24.45;96254.22;10371954;28;20200;-60
2022/06/18 13:48:07;;;;;;;13.15;2.90;;;;;;;38.63;24.23;96208.13;10372614;28;20244;-59
2022/06/18 13:53:07;;;;;;;16.20;3.03;;;;;;;40.25;22.73;96209.06;10445745;23;20255;-65
2022/06/18 13:58:18;;;;;;;19.73;3.20;;;;;;;39.53;23.18;96149.19;10455058;28;20187;-64
2022/06/18 14:03:23;;;;;;;21.00;3.88;;;;;;;36.40;25.85;96097.66;10437439;28;20211;-62
2022/06/18 14:08:29;;;;;;;12.85;3.05;;;;;;;37.96;24.02;96121.13;10455066;28;20229;-63
2022/06/18 14:13:47;;;;;;;21.92;3.53;;;;;;;40.26;23.06;96196.13;10454754;28;20325;-63
2022/06/18 14:18:48;;;;;;;19.35;3.25;;;;;;;40.78;22.20;96172.75;10454417;28;20194;-64
2022/06/18 14:23:56;;;;;;;15.67;3.03;;;;;;;41.04;21.85;96162.97;10454561;28;20190;-63
2022/06/18 14:28:59;;;;;;;17.38;3.50;;;;;;;38.29;22.44;95996.16;10454349;28;20306;-64
2022/06/18 14:34:15;;;;;;;19.23;3.40;;;;;;;36.14;25.20;96036.00;10454982;28;20191;-63
2022/06/18 14:39:27;;;;;;;18.27;3.40;;;;;;;37.60;23.54;96043.59;10454207;28;20214;-63
2022/06/18 14:44:53;;;;;;;15.32;3.30;;;;;;;39.21;23.57;96111.72;10453536;28;20180;-63
2022/06/18 14:50:05;;;;;;;13.95;3.05;;;;;;;41.68;21.27;96145.81;10453227;28;20292;-63
2022/06/18 14:55:08;;;;;;;19.67;3.53;;;;;;;42.94;20.79;96147.09;10452811;28;20696;-64
2022/06/18 15:00:22;;;;;;;14.70;3.75;;;;;;;41.11;22.69;96124.63;10435259;28;20223;-64
2022/06/18 15:05:25;;;;;;;15.98;3.40;;;;;;;43.75;20.31;96172.03;10432830;28;20202;-62
2022/06/18 15:10:31;;;;;;;17.67;2.95;;;;;;;39.68;23.49;96070.78;10423448;28;20216;-62
2022/06/18 15:21:06;;;;;;;15.20;3.17;;;;;;;40.58;22.51;96097.88;10361925;28;20223;-64
2022/06/18 15:26:09;;;;;;;24.10;3.47;;;;;;;39.90;22.83;96078.25;10428860;28;20250;-64
2022/06/18 15:31:22;;;;;;;21.65;3.38;;;;;;;40.66;22.80;96098.78;10427775;28;20304;-63
2022/06/18 15:36:33;;;;;;;28.23;4.47;;;;;;;39.83;23.66;96094.56;10422384;28;20659;-63
2022/06/18 15:41:43;;;;;;;22.70;3.88;;;;;;;40.44;22.80;96106.69;10416002;28;20712;-64
2022/06/18 15:46:48;;;;;;;27.98;3.78;;;;;;;38.22;24.23;96056.94;10412256;28;20242;-64
2022/06/18 15:51:49;;;;;;;27.58;3.95;;;;;;;38.18;25.17;96077.94;10424274;28;20672;-64
2022/06/18 15:56:54;;;;;;;20.98;3.65;;;;;;;38.94;24.42;96099.72;10410566;28;20195;-64
2022/06/18 16:01:55;;;;;;;18.45;3.42;;;;;;;36.83;26.99;96098.28;10419166;28;20341;-63
2022/06/18 16:06:56;;;;;;;13.80;3.42;;;;;;;37.00;26.95;96108.16;10394084;28;20580;-63
2022/06/18 16:12:27;;;;;;;20.52;3.13;;;;;;;37.21;26.94;96121.66;10419078;28;20694;-64
2022/06/18 16:17:30;;;;;;;21.02;3.58;;;;;;;35.93;28.07;96114.34;10407278;28;20287;-62
2022/06/18 16:22:36;;;;;;;19.90;3.78;;;;;;;35.74;27.84;96096.53;10401091;28;20212;-63
2022/06/18 16:27:37;;;;;;;17.27;3.75;;;;;;;34.54;29.42;96104.03;10420459;28;20231;-63
2022/06/18 16:32:41;;;;;;;20.77;3.40;;;;;;;34.59;28.45;96084.81;10411550;28;20204;-63
2022/06/18 16:37:41;;;;;;;16.55;3.35;;;;;;;34.56;28.71;96098.28;10430478;28;20649;-63
2022/06/18 16:43:00;;;;;;;22.13;3.33;;;;;;;32.89;31.01;96100.28;10439756;28;20216;-63
2022/06/18 16:48:11;;;;;;;16.60;3.28;;;;;;;32.59;31.81;96134.47;10443026;28;20539;-64
2022/06/18 16:53:30;;;;;;;16.88;4.28;;;;;;;32.83;32.40;96175.59;10447934;28;20231;-63
2022/06/18 16:58:30;;;;;;;15.93;3.28;;;;;;;33.35;31.29;96174.19;10453976;28;20264;-63
2022/06/18 17:03:31;;;;;;;19.10;3.63;;;;;;;33.15;31.55;96165.47;10430026;28;20211;-64
2022/06/18 17:08:34;;;;;;;22.83;4.30;;;;;;;33.19;32.54;96209.13;10450320;28;20605;-65
2022/06/18 17:13:39;;;;;;;18.20;4.57;;;;;;;33.00;32.30;96199.31;10422307;28;20224;-63
2022/06/18 17:18:39;;;;;;;18.48;3.78;;;;;;;32.98;32.42;96198.81;10397341;28;20678;-65
2022/06/18 17:34:26;;;;;;;18.88;3.33;;;;;;;32.68;33.62;96227.56;10415005;28;20675;-64
2022/06/18 17:39:26;;;;;;;14.07;3.50;;;;;;;32.04;35.03;96235.88;10415352;28;20220;-64
2022/06/18 17:44:27;;;;;;;16.45;3.05;;;;;;;31.75;35.42;96256.03;10413577;28;20492;-63
2022/06/18 17:49:27;;;;;;;26.83;4.07;;;;;;;30.72;38.54;96303.94;10429396;28;20798;-64
2022/06/18 17:54:27;;;;;;;20.50;3.83;;;;;;;30.53;40.93;96385.91;10434607;28;20957;-64
2022/06/18 17:59:28;;;;;;;14.67;2.77;;;;;;;30.21;43.28;96435.25;10449257;28;20985;-64
2022/06/18 18:04:32;;;;;;;21.70;3.38;;;;;;;29.80;44.45;96449.22;10432791;28;20957;-64
2022/06/18 18:09:34;;;;;;;13.65;2.97;;;;;;;29.29;46.93;96472.13;10413436;28;20570;-63
2022/06/18 18:14:41;;;;;;;21.05;3.38;;;;;;;27.72;50.38;96496.53;10413630;28;20228;-63
2022/06/18 18:19:41;;;;;;;18.65;4.15;;;;;;;26.37;52.95;96506.56;10413327;28;20587;-62
2022/06/18 18:24:41;;;;;;;18.35;3.97;;;;;;;26.28;53.67;96500.88;10423806;28;20267;-63
2022/06/18 18:29:43;;;;;;;14.57;3.67;;;;;;;26.28;55.27;96527.72;10430604;28;20223;-63
2022/06/18 18:34:43;;;;;;;13.60;2.97;;;;;;;26.27;55.29;96505.44;10428615;28;20446;-62
2022/06/18 18:39:44;;;;;;;21.52;3.55;;;;;;;25.29;58.42;96546.91;10427298;28;20216;-62
2022/06/18 18:44:47;;;;;;;16.60;3.53;;;;;;;24.75;60.24;96537.00;10427932;28;20284;-61
2022/06/18 18:49:48;;;;;;;19.75;3.03;;;;;;;25.02;58.26;96501.34;10435495;28;20232;-57
2022/06/18 18:54:49;;;;;;;12.25;3.25;;;;;;;24.79;59.19;96518.53;10452353;28;20195;-60
2022/06/18 18:59:49;;;;;;;12.82;3.63;;;;;;;24.47;60.02;96516.53;10419246;28;20259;-58
2022/06/18 19:04:50;;;;;;;25.52;4.97;;;;;;;23.95;59.82;96494.53;10409128;28;20654;-59
2022/06/18 19:09:51;;;;;;;18.80;3.70;;;;;;;23.98;58.82;96477.97;10410763;28;20304;-60
2022/06/18 19:14:53;;;;;;;14.73;3.78;;;;;;;24.06;59.28;96490.09;10410794;28;20201;-58
2022/06/18 19:19:54;;;;;;;20.50;3.70;;;;;;;23.78;60.12;96507.06;10419308;28;20212;-60
2022/06/18 19:24:54;;;;;;;19.23;4.35;;;;;;;23.22;61.88;96528.44;10425482;28;20204;-57
2022/06/18 19:29:54;;;;;;;21.02;4.28;;;;;;;23.20;61.98;96525.16;10428460;28;20333;-56
2022/06/18 19:34:55;;;;;;;15.30;3.88;;;;;;;23.19;61.70;96518.22;10425611;28;20201;-61
2022/06/18 19:39:55;;;;;;;20.13;4.93;;;;;;;23.21;61.03;96511.56;10433643;28;20583;-61
2022/06/18 19:44:56;;;;;;;21.45;5.53;;;;;;;23.07;60.93;96510.22;10456722;28;20183;-59
2022/06/18 19:49:56;;;;;;;19.65;4.40;;;;;;;23.00;61.02;96509.56;10452216;28;20318;-61
2022/06/18 19:54:57;;;;;;;20.13;4.50;;;;;;;22.84;61.24;96505.81;10438456;23;20239;-51
2022/06/18 19:59:58;;;;;;;22.92;4.45;;;;;;;22.76;61.06;96510.50;10416063;28;20553;-54
2022/06/18 20:04:58;;;;;;;14.10;3.45;;;;;;;22.74;61.16;96511.78;10371295;28;20216;-54
2022/06/18 20:09:59;;;;;;;13.43;4.25;;;;;;;22.42;62.16;96515.72;10361252;28;20219;-57
2022/06/18 20:14:59;;;;;;;17.25;3.58;;;;;;;22.42;61.88;96512.25;10361878;28;20213;-53
2022/06/18 20:19:59;;;;;;;16.83;4.50;;;;;;;22.26;62.44;96522.56;10356030;28;20194;-52
2022/06/18 20:25:00;;;;;;;15.00;3.90;;;;;;;22.01;63.43;96525.53;10353231;28;20214;-52
2022/06/18 20:30:05;;;;;;;19.55;3.97;;;;;;;21.76;63.85;96530.31;10352819;28;20217;-50
2022/06/18 20:35:08;;;;;;;14.63;4.03;;;;;;;21.64;63.95;96517.78;10352987;28;20209;-53
2022/06/18 20:40:09;;;;;;;22.40;4.35;;;;;;;21.64;63.95;96519.63;10356028;28;20272;-51
2022/06/18 20:45:10;;;;;;;17.05;4.18;;;;;;;21.50;64.23;96525.22;10358890;28;20219;-53
2022/06/18 20:50:11;;;;;;;18.38;3.50;;;;;;;21.36;64.77;96521.91;10375115;28;20225;-52
2022/06/18 21:00:52;;;;;;;14.77;4.00;;;;;;;21.10;65.60;96515.16;10245147;29;20234;-53
2022/06/18 21:05:52;;;;;;;21.83;5.10;;;;;;;20.96;66.14;96525.16;10315417;28;20252;-52
2022/06/18 21:10:53;;;;;;;14.40;4.00;;;;;;;20.76;67.01;96524.66;10334088;28;20241;-54
2022/06/18 21:15:53;;;;;;;18.83;4.00;;;;;;;20.67;67.18;96521.47;10333819;28;20214;-50
2022/06/18 21:20:53;;;;;;;27.27;4.22;;;;;;;20.57;67.54;96511.34;10345628;28;20255;-50
2022/06/18 21:25:54;;;;;;;13.30;3.58;;;;;;;20.52;67.41;96507.72;10374240;28;20704;-50
2022/06/18 21:30:54;;;;;;;17.23;3.78;;;;;;;20.53;67.17;96501.38;10374347;28;20186;-51
2022/06/18 21:41:15;;;;;;;15.82;4.13;;;;;;;20.44;67.25;96498.22;10374087;28;20265;-52
2022/06/18 21:46:15;;;;;;;14.82;3.75;;;;;;;20.43;67.14;96483.31;10356522;28;20619;-50
2022/06/18 21:51:16;;;;;;;17.80;4.28;;;;;;;20.36;67.25;96482.56;10373371;28;20189;-52
2022/06/18 21:56:18;;;;;;;19.15;3.53;;;;;;;20.27;67.44;96488.19;10373618;28;20217;-51
2022/06/18 22:01:19;;;;;;;13.07;3.60;;;;;;;20.22;67.85;96481.94;10373410;28;20193;-52
2022/06/18 22:06:19;;;;;;;22.02;4.18;;;;;;;20.07;68.08;96479.63;10372513;28;20224;-56
2022/06/18 22:11:20;;;;;;;17.60;4.65;;;;;;;20.04;68.01;96470.25;10373012;28;20722;-55
2022/06/18 22:21:40;;;;;;;13.23;3.70;;;;;;;19.94;68.24;96470.78;10372459;28;20209;-56
2022/06/18 22:26:41;;;;;;;11.68;3.22;;;;;;;19.92;68.40;96466.72;10372191;28;20217;-57
2022/06/18 22:31:41;;;;;;;17.67;3.80;;;;;;;19.76;68.78;96460.91;10372180;28;20228;-54
2022/06/18 22:36:43;;;;;;;11.10;3.28;;;;;;;19.89;68.17;96467.16;10371783;28;20251;-54
2022/06/18 22:41:44;;;;;;;11.55;2.55;;;;;;;19.95;67.88;96448.50;10371823;28;20722;-52
2022/06/18 22:46:45;;;;;;;19.58;3.55;;;;;;;20.02;67.00;96437.75;10353898;28;20224;-54
2022/06/18 22:51:49;;;;;;;14.30;3.50;;;;;;;19.93;67.51;96452.41;10353710;28;20838;-53
2022/06/18 22:56:49;;;;;;;14.05;3.30;;;;;;;19.71;68.20;96450.16;10371334;28;20197;-51
2022/06/18 23:01:52;;;;;;;10.60;2.65;;;;;;;19.66;68.77;96457.16;10370866;28;21009;-54
2022/06/18 23:06:53;;;;;;;21.15;3.22;;;;;;;19.57;68.89;96452.13;10370702;28;20271;-55
2022/06/18 23:11:56;;;;;;;14.43;3.55;;;;;;;19.48;69.46;96445.50;10370692;28;20209;-54
2022/06/18 23:17:00;;;;;;;16.83;3.22;;;;;;;19.47;69.39;96441.19;10370113;28;20284;-50
2022/06/18 23:22:00;;;;;;;15.75;3.08;;;;;;;19.44;69.32;96436.31;10353028;28;20221;-50
2022/06/18 23:27:01;;;;;;;21.08;3.50;;;;;;;19.43;69.32;96427.53;10370081;28;20220;-50
2022/06/18 23:32:03;;;;;;;17.42;3.33;;;;;;;19.52;68.88;96419.28;10370536;28;20212;-52
2022/06/18 23:37:06;;;;;;;18.88;3.63;;;;;;;19.59;68.56;96404.88;10369930;28;20589;-50
2022/06/18 23:42:06;;;;;;;11.20;3.45;;;;;;;19.74;67.73;96393.06;10369973;28;20259;-50
2022/06/18 23:47:07;;;;;;;11.55;2.83;;;;;;;19.76;67.79;96393.66;10369983;28;20275;-50
2022/06/18 23:52:08;;;;;;;15.73;3.35;;;;;;;19.75;67.71;96389.38;10369461;28;20247;-50
2022/06/18 23:57:12;;;;;;;13.18;3.45;;;;;;;19.79;67.43;96387.94;10369980;28;20751;-50
